Lonquimay, Argentina
Current Conditions -  °F | °C
As of 9:00 PM on Sunday 23 Nov 2014 (Local Time) from SAOC Reporting Station
Scattered Clouds Scattered Clouds  
Wind Chill: 26°   Ceiling: Unl
Heat Index: 26°   Visibility: 6mi
Dew Point:   Wind: 28mph
Humidity: 30%   Direction: 360°N
Pressure: 29.56"   Gusts: NA
Location:  36.47°S, 63.62°W
Report Text: SAOC 240000Z 36024KT 9999 FEW040 SCT20026/07 Q1001
Loading
Personal Weather Stations






























Interactive Weather Map New forecast layout! Learn more

10-Day Weather Forecast

Advertisements
Track Severe Weather on mobile